Time;durP1;ratioP1;P1;durP2;ratioP2;P2;SDS_P1;SDS_P2;PMS_P1;PMS_P2;Temp;Humidity;BMP_temperature;BMP_pressure;BME280_temperature;BME280_humidity;BME280_pressure;Samples;Min_cycle;Max_cycle;Signal;HPM_P1;HPM_P2
2023/09/26 00:00:21;;;;;;;2.10;1.50;;;13.60;99.90;;;13.82;100.00;101627.44;5237387;28;20049;-47
2023/09/26 00:02:54;;;;;;;2.28;1.40;;;13.60;99.90;;;13.80;100.00;101618.63;5236849;28;20053;-46
2023/09/26 00:05:27;;;;;;;3.10;1.63;;;13.60;99.90;;;13.80;100.00;101628.22;5220968;28;20648;-47
2023/09/26 00:08:03;;;;;;;1.63;1.30;;;13.60;99.90;;;13.78;100.00;101624.66;5234551;28;20045;-47
2023/09/26 00:10:35;;;;;;;2.63;1.55;;;13.50;99.90;;;13.74;100.00;101618.41;5237776;28;20069;-47
2023/09/26 00:13:07;;;;;;;3.22;1.63;;;13.50;99.90;;;13.72;100.00;101620.09;5220246;28;20053;-47
2023/09/26 00:15:43;;;;;;;2.08;1.30;;;13.50;99.90;;;13.71;100.00;101615.69;5219998;28;20503;-46
2023/09/26 00:18:15;;;;;;;1.85;1.15;;;13.50;99.90;;;13.69;100.00;101622.63;5236810;28;20059;-47
2023/09/26 00:20:48;;;;;;;3.35;1.33;;;13.50;99.90;;;13.69;100.00;101613.81;5236760;28;20056;-46
2023/09/26 00:23:22;;;;;;;2.45;1.50;;;13.50;99.90;;;13.66;100.00;101619.88;5237982;28;20045;-46
2023/09/26 00:25:54;;;;;;;2.67;1.60;;;13.50;99.90;;;13.66;100.00;101619.88;5220238;28;20041;-46
2023/09/26 00:28:27;;;;;;;2.13;1.60;;;13.40;99.90;;;13.63;100.00;101622.41;5237654;28;20079;-47
2023/09/26 00:31:04;;;;;;;2.25;1.63;;;13.40;99.90;;;13.59;100.00;101623.09;5221874;28;20052;-46
2023/09/26 00:33:36;;;;;;;3.78;1.52;;;13.40;99.90;;;13.54;100.00;101616.81;5237153;28;20053;-47
2023/09/26 00:36:10;;;;;;;2.50;1.98;;;13.30;99.90;;;13.51;100.00;101627.19;5237089;28;20424;-45
2023/09/26 00:38:44;;;;;;;3.25;1.60;;;13.30;99.90;;;13.45;100.00;101625.25;5220629;28;20462;-46
2023/09/26 00:41:16;;;;;;;1.88;1.58;;;13.20;99.90;;;13.42;100.00;101626.84;5218487;28;20049;-47
2023/09/26 00:43:50;;;;;;;3.15;1.73;;;13.20;99.90;;;13.38;100.00;101617.09;5220580;28;20056;-47
2023/09/26 00:46:23;;;;;;;2.85;1.67;;;13.20;99.90;;;13.36;100.00;101616.13;5236261;28;20051;-47
2023/09/26 00:48:58;;;;;;;2.00;1.35;;;13.10;99.90;;;13.34;100.00;101615.19;5222044;28;20717;-45
2023/09/26 00:51:31;;;;;;;2.78;1.33;;;13.10;99.90;;;13.34;100.00;101617.81;5241421;28;20065;-46
2023/09/26 00:54:06;;;;;;;2.17;1.50;;;13.10;99.90;;;13.34;100.00;101615.19;5224976;28;20538;-46
2023/09/26 00:56:40;;;;;;;2.88;1.83;;;13.10;99.90;;;13.34;100.00;101613.47;5238880;28;20056;-49
2023/09/26 00:59:13;;;;;;;2.78;1.55;;;13.10;99.90;;;13.34;100.00;101607.34;5225029;28;20053;-46
2023/09/26 01:01:48;;;;;;;2.75;1.92;;;13.10;99.90;;;13.33;100.00;101603.84;5237247;28;20425;-47
2023/09/26 01:04:22;;;;;;;2.25;1.33;;;13.10;99.90;;;13.28;100.00;101611.50;5218216;28;20051;-47
2023/09/26 01:06:55;;;;;;;1.92;1.30;;;13.10;99.90;;;13.25;100.00;101611.41;5238151;28;20072;-46
2023/09/26 01:09:28;;;;;;;1.83;1.60;;;13.10;99.90;;;13.21;100.00;101609.50;5239221;28;20052;-47
2023/09/26 01:12:05;;;;;;;2.20;1.48;;;13.00;99.90;;;13.17;100.00;101609.28;5237927;28;20046;-47
2023/09/26 01:14:37;;;;;;;2.97;1.55;;;13.00;99.90;;;13.13;100.00;101608.31;5225289;28;20044;-47
2023/09/26 01:17:10;;;;;;;3.67;1.52;;;12.90;99.90;;;13.10;100.00;101609.91;5224386;28;20083;-47
2023/09/26 01:19:42;;;;;;;2.00;1.75;;;12.90;99.90;;;13.05;100.00;101607.13;5238557;28;20053;-46
2023/09/26 01:22:18;;;;;;;2.35;1.33;;;12.90;99.90;;;13.03;100.00;101608.78;5224373;28;20515;-47
2023/09/26 01:24:53;;;;;;;3.22;1.40;;;12.80;99.90;;;12.98;100.00;101611.25;5221804;28;20043;-46
2023/09/26 01:27:25;;;;;;;;;;;12.80;99.90;;;12.95;100.00;101605.00;5226088;28;20052;-46
2023/09/26 01:29:57;;;;;;;3.05;1.88;;;12.80;99.90;;;12.91;100.00;101605.69;5224696;28;19935;-47
2023/09/26 01:32:30;;;;;;;2.47;1.42;;;12.70;99.90;;;12.88;100.00;101602.97;5240893;28;20053;-47
2023/09/26 01:35:02;;;;;;;1.58;1.42;;;12.70;99.90;;;12.84;100.00;101595.84;5238594;28;20041;-47
2023/09/26 01:37:34;;;;;;;1.95;1.65;;;12.70;99.90;;;12.81;100.00;101603.59;5223821;28;20454;-47
2023/09/26 01:40:11;;;;;;;1.83;1.23;;;12.60;99.90;;;12.79;100.00;101597.41;5239370;28;20049;-46
2023/09/26 01:42:44;;;;;;;2.22;1.45;;;12.60;99.90;;;12.81;100.00;101596.63;5222165;28;20102;-47
2023/09/26 01:45:16;;;;;;;2.85;1.55;;;12.60;99.90;;;12.83;100.00;101588.81;5223028;28;20048;-46
2023/09/26 01:47:52;;;;;;;3.83;1.73;;;12.60;99.90;;;12.85;100.00;101589.78;5222250;28;20139;-47
2023/09/26 01:50:24;;;;;;;2.67;1.58;;;12.70;99.90;;;12.89;100.00;101589.94;5223435;28;20086;-46
2023/09/26 01:52:56;;;;;;;1.85;1.30;;;12.70;99.90;;;12.89;100.00;101589.06;5238501;28;20049;-47
2023/09/26 01:55:30;;;;;;;2.20;2.00;;;12.70;99.90;;;12.86;100.00;101592.47;5240238;28;20269;-47
2023/09/26 01:58:03;;;;;;;2.65;1.90;;;12.70;99.90;;;12.81;100.00;101590.50;5239768;28;20427;-46
2023/09/26 02:00:35;;;;;;;2.90;1.52;;;12.70;99.90;;;12.76;100.00;101585.09;5222020;28;20056;-46
2023/09/26 02:03:08;;;;;;;2.55;1.65;;;12.60;99.90;;;12.72;100.00;101593.66;5239225;28;20127;-47
2023/09/26 02:05:40;;;;;;;2.53;1.80;;;12.60;99.90;;;12.66;100.00;101591.69;5223366;28;20450;-46
2023/09/26 02:08:16;;;;;;;1.95;1.70;;;12.50;99.90;;;12.63;100.00;101588.06;5239787;28;20048;-46
2023/09/26 02:10:50;;;;;;;2.50;1.63;;;12.50;99.90;;;12.62;100.00;101574.09;5238881;28;20187;-48
2023/09/26 02:13:22;;;;;;;1.92;1.50;;;12.50;99.90;;;12.60;100.00;101578.38;5239623;28;20044;-47
2023/09/26 02:15:54;;;;;;;2.72;1.77;;;12.40;99.90;;;12.60;100.00;101586.22;5238430;28;20067;-47
2023/09/26 02:18:27;;;;;;;1.92;1.63;;;12.40;99.90;;;12.60;100.00;101583.59;5239706;28;20118;-47
2023/09/26 02:20:59;;;;;;;1.77;1.50;;;12.40;99.90;;;12.60;100.00;101581.00;5239206;28;20152;-46
2023/09/26 02:23:32;;;;;;;2.63;2.10;;;12.40;99.90;;;12.60;100.00;101574.88;5223228;28;20458;-46
2023/09/26 02:26:09;;;;;;;3.53;1.60;;;12.40;99.90;;;12.60;100.00;101580.09;5238515;28;20049;-46
2023/09/26 02:28:41;;;;;;;2.47;1.77;;;12.40;99.90;;;12.56;100.00;101579.06;5223465;28;20051;-46
2023/09/26 02:31:16;;;;;;;3.45;1.92;;;12.40;99.90;;;12.52;100.00;101582.44;5222481;28;20045;-47
2023/09/26 02:33:48;;;;;;;;;;;12.40;99.90;;;12.47;100.00;101576.13;5224010;28;20044;-46
2023/09/26 02:36:20;;;;;;;3.47;1.70;;;12.30;99.90;;;12.45;100.00;101585.59;5238957;28;19920;-47
2023/09/26 02:38:53;;;;;;;2.22;1.88;;;12.30;99.90;;;12.45;100.00;101582.97;5222540;28;20130;-47
2023/09/26 02:41:27;;;;;;;2.58;1.70;;;12.30;99.90;;;12.46;100.00;101587.41;5239753;28;20048;-47
2023/09/26 02:44:00;;;;;;;3.20;1.80;;;12.30;99.90;;;12.47;100.00;101583.97;5238573;28;20045;-47
2023/09/26 02:46:32;;;;;;;3.63;1.80;;;12.30;99.90;;;12.49;100.00;101583.19;5222469;28;20049;-48
2023/09/26 02:49:04;;;;;;;2.70;1.42;;;12.30;99.90;;;12.49;100.00;101570.09;5238856;28;20056;-47
2023/09/26 02:51:37;;;;;;;3.03;1.70;;;12.30;99.90;;;12.48;100.00;101573.56;5223053;28;20044;-46
2023/09/26 02:54:09;;;;;;;2.42;1.80;;;12.30;99.90;;;12.50;100.00;101563.16;5237962;28;20102;-46
2023/09/26 02:56:43;;;;;;;3.70;1.83;;;12.30;99.90;;;12.51;100.00;101570.16;5222377;28;20051;-47
2023/09/26 02:59:15;;;;;;;2.08;1.55;;;12.40;99.90;;;12.51;100.00;101578.00;5218758;28;20060;-47
2023/09/26 03:01:48;;;;;;;2.78;1.80;;;12.40;99.90;;;12.50;100.00;101564.03;5236690;28;20068;-48
2023/09/26 03:04:20;;;;;;;3.17;1.73;;;12.30;99.90;;;12.48;100.00;101577.91;5238909;28;20056;-49
2023/09/26 03:06:53;;;;;;;2.65;2.10;;;12.30;99.90;;;12.43;100.00;101576.81;5221361;28;20079;-47
2023/09/26 03:09:25;;;;;;;2.20;1.70;;;12.30;99.90;;;12.37;100.00;101573.94;5211926;28;20055;-47
2023/09/26 03:11:59;;;;;;;2.17;1.63;;;12.20;99.90;;;12.32;100.00;101571.16;5229125;28;20056;-47
2023/09/26 03:14:31;;;;;;;2.63;1.98;;;12.20;99.90;;;12.29;100.00;101573.66;5227318;28;20408;-48
2023/09/26 03:17:05;;;;;;;2.85;1.85;;;12.10;99.90;;;12.25;100.00;101570.84;5222163;28;20511;-47
2023/09/26 03:19:38;;;;;;;2.22;1.52;;;12.10;99.90;;;12.22;100.00;101564.66;5225108;28;20111;-47
2023/09/26 03:22:14;;;;;;;3.78;1.90;;;12.10;99.90;;;12.17;100.00;101566.19;5228868;28;20049;-46
2023/09/26 03:24:46;;;;;;;2.35;1.85;;;12.00;99.90;;;12.13;100.00;101568.66;5228459;28;20053;-47
2023/09/26 03:27:20;;;;;;;2.55;1.63;;;12.00;99.90;;;12.08;100.00;101576.28;5225627;28;20575;-46
2023/09/26 03:29:52;;;;;;;2.15;1.52;;;11.90;99.90;;;12.06;100.00;101569.19;5231135;28;20077;-47
2023/09/26 03:32:25;;;;;;;2.63;2.15;;;11.90;99.90;;;12.00;100.00;101564.66;5216209;28;20132;-47
2023/09/26 03:34:57;;;;;;;2.13;1.75;;;11.90;99.90;;;11.98;100.00;101566.28;5220122;28;20053;-46
2023/09/26 03:37:31;;;;;;;2.33;1.60;;;11.90;99.90;;;11.98;100.00;101568.00;5221406;28;20044;-47
2023/09/26 03:40:03;;;;;;;3.10;1.73;;;11.80;99.90;;;12.01;100.00;101571.66;5224438;28;20053;-47
2023/09/26 03:42:37;;;;;;;2.08;1.75;;;11.80;99.90;;;12.02;100.00;101573.44;5232062;28;20056;-47
2023/09/26 03:45:10;;;;;;;2.38;1.67;;;11.80;99.90;;;12.02;100.00;101572.53;5211133;28;20049;-47
2023/09/26 03:47:42;;;;;;;2.50;1.70;;;11.80;99.90;;;11.99;100.00;101570.66;5218405;28;20041;-46
2023/09/26 03:50:15;;;;;;;3.22;1.83;;;11.90;99.90;;;12.02;100.00;101568.19;5231740;28;20048;-47
2023/09/26 03:52:47;;;;;;;3.65;2.20;;;11.90;99.90;;;12.05;100.00;101568.31;5231488;28;20054;-46
2023/09/26 03:55:20;;;;;;;3.95;2.38;;;11.90;99.90;;;12.10;100.00;101558.94;5231427;28;20512;-46
2023/09/26 03:57:54;;;;;;;4.15;2.28;;;11.90;99.90;;;12.14;100.00;101563.47;5221722;28;20052;-47
2023/09/26 04:00:28;;;;;;;3.22;2.08;;;12.00;99.90;;;12.17;100.00;101563.59;5216310;28;20045;-47
2023/09/26 04:03:01;;;;;;;2.83;1.80;;;12.00;99.90;;;12.19;100.00;101566.25;5214970;28;20049;-47
2023/09/26 04:05:34;;;;;;;3.65;2.15;;;12.10;99.90;;;12.17;100.00;101558.34;5225527;28;20053;-46
2023/09/26 04:08:06;;;;;;;3.00;2.10;;;12.00;99.90;;;12.18;100.00;101564.47;5231243;28;20049;-47
2023/09/26 04:10:39;;;;;;;2.00;1.67;;;12.00;99.90;;;12.19;100.00;101567.19;5226056;28;20053;-48
2023/09/26 04:13:13;;;;;;;2.78;2.03;;;12.10;99.90;;;12.15;100.00;101572.22;5231488;28;20080;-46
2023/09/26 04:15:46;;;;;;;2.85;1.90;;;12.00;99.90;;;12.12;100.00;101557.28;5231060;28;20051;-46
2023/09/26 04:18:18;;;;;;;2.22;1.50;;;12.00;99.90;;;12.11;100.00;101557.22;5231066;28;20052;-46
2023/09/26 04:20:51;;;;;;;2.50;1.65;;;12.00;99.90;;;12.12;100.00;101554.66;5231503;28;20095;-47
2023/09/26 04:23:23;;;;;;;3.92;2.30;;;12.00;99.90;;;12.13;100.00;101550.34;5215935;28;20368;-47
2023/09/26 04:25:56;;;;;;;3.13;1.98;;;12.00;99.90;;;12.15;100.00;101546.97;5234871;28;20052;-47
2023/09/26 04:28:30;;;;;;;3.22;2.22;;;12.00;99.90;;;12.17;100.00;101549.63;5230531;28;20389;-47
2023/09/26 04:31:03;;;;;;;2.80;2.10;;;12.00;99.90;;;12.13;100.00;101542.50;5213690;28;20060;-46
2023/09/26 04:33:35;;;;;;;3.70;2.25;;;12.00;99.90;;;12.08;100.00;101537.09;5216796;28;20140;-46
2023/09/26 04:36:07;;;;;;;2.58;1.80;;;12.00;99.90;;;12.02;100.00;101541.19;5214306;28;20060;-47
2023/09/26 04:38:41;;;;;;;3.10;2.00;;;11.90;99.90;;;11.95;100.00;101543.53;5231543;28;20072;-46
2023/09/26 04:41:14;;;;;;;3.47;1.98;;;11.80;99.90;;;11.90;100.00;101542.44;5225384;28;20041;-46
2023/09/26 04:43:47;;;;;;;3.08;1.77;;;11.80;99.90;;;11.84;100.00;101536.09;5215274;28;20077;-47
2023/09/26 04:46:20;;;;;;;3.17;2.03;;;11.70;99.90;;;11.81;100.00;101535.97;5210387;28;20505;-46
2023/09/26 04:48:52;;;;;;;2.35;1.73;;;11.70;99.90;;;11.79;100.00;101537.56;5223539;28;20053;-46
2023/09/26 04:51:25;;;;;;;3.00;2.00;;;11.70;99.90;;;11.74;100.00;101531.28;5231469;28;20041;-47
2023/09/26 04:53:59;;;;;;;3.88;1.85;;;11.60;99.90;;;11.68;100.00;101526.69;5220295;28;20086;-46
2023/09/26 04:56:32;;;;;;;3.53;1.83;;;11.60;99.90;;;11.63;100.00;101523.88;5231453;28;20045;-46
2023/09/26 04:59:05;;;;;;;3.13;2.13;;;11.50;99.90;;;11.58;100.00;101520.19;5220688;28;20514;-46
2023/09/26 05:01:38;;;;;;;2.97;1.90;;;11.40;99.90;;;11.54;100.00;101515.69;5214954;28;20060;-47
2023/09/26 05:04:10;;;;;;;3.60;2.28;;;11.40;99.90;;;11.51;100.00;101520.75;5231428;28;20393;-47
2023/09/26 05:06:42;;;;;;;2.65;1.83;;;11.40;99.90;;;11.47;100.00;101518.81;5231615;28;20048;-46
2023/09/26 05:09:15;;;;;;;2.30;1.85;;;11.40;99.90;;;11.46;100.00;101521.38;5231251;28;20088;-46
2023/09/26 05:11:47;;;;;;;3.00;2.10;;;11.40;99.90;;;11.42;100.00;101517.75;5237330;28;20475;-47
2023/09/26 05:14:21;;;;;;;2.83;1.80;;;11.30;99.90;;;11.39;100.00;101515.00;5219463;28;20040;-47
2023/09/26 05:16:54;;;;;;;2.35;2.00;;;11.30;99.90;;;11.37;100.00;101514.06;5230976;28;20053;-46
2023/09/26 05:19:26;;;;;;;3.40;1.85;;;11.30;99.90;;;11.34;100.00;101513.91;5220396;28;20091;-47
2023/09/26 05:21:59;;;;;;;2.10;1.70;;;11.20;99.90;;;11.34;100.00;101516.53;5236881;28;20079;-46
2023/09/26 05:24:31;;;;;;;2.92;2.00;;;11.30;99.90;;;11.34;100.00;101530.47;5231002;28;20033;-47
2023/09/26 05:27:04;;;;;;;3.08;2.03;;;11.30;99.90;;;11.33;100.00;101526.06;5220142;28;20072;-47
2023/09/26 05:29:37;;;;;;;3.45;2.13;;;11.20;99.90;;;11.34;100.00;101526.97;5231961;28;20164;-47
2023/09/26 05:32:10;;;;;;;3.08;1.80;;;11.20;99.90;;;11.34;100.00;101529.56;5216489;28;20065;-47
2023/09/26 05:34:42;;;;;;;3.28;2.05;;;11.20;99.90;;;11.30;100.00;101530.28;5218470;28;20053;-47
2023/09/26 05:37:15;;;;;;;2.72;1.83;;;11.20;99.90;;;11.30;100.00;101530.28;5230192;28;20045;-48
2023/09/26 05:39:47;;;;;;;2.95;2.00;;;11.20;99.90;;;11.29;100.00;101534.63;5213866;28;20053;-46
2023/09/26 05:42:19;;;;;;;2.50;1.92;;;11.20;99.90;;;11.29;100.00;101536.34;5220258;28;20048;-45
2023/09/26 05:44:53;;;;;;;5.05;2.20;;;11.20;99.90;;;11.29;100.00;101538.94;5237896;28;20056;-46
2023/09/26 05:47:25;;;;;;;3.88;2.10;;;11.20;99.90;;;11.31;100.00;101542.50;5235348;28;20037;-47
2023/09/26 05:49:58;;;;;;;3.92;2.35;;;11.20;99.90;;;11.30;100.00;101540.72;5230300;28;20060;-46
2023/09/26 05:52:30;;;;;;;2.92;1.63;;;11.20;99.90;;;11.31;100.00;101543.38;5226342;28;20045;-46
2023/09/26 05:55:03;;;;;;;3.55;2.50;;;11.20;99.90;;;11.34;100.00;101543.50;5217172;28;20049;-47
2023/09/26 05:57:36;;;;;;;4.68;2.17;;;11.20;99.90;;;11.36;100.00;101541.88;5235253;28;20041;-49
2023/09/26 06:00:12;;;;;;;3.50;2.70;;;11.30;99.90;;;11.40;100.00;101543.78;5233678;28;20053;-46
2023/09/26 06:02:48;;;;;;;3.80;2.20;;;11.30;99.90;;;11.45;100.00;101541.38;5234826;28;20053;-46
2023/09/26 06:05:21;;;;;;;4.05;2.25;;;11.30;99.90;;;11.51;100.00;101545.97;5214573;28;20053;-47
2023/09/26 06:07:54;;;;;;;3.85;2.42;;;11.40;99.90;;;11.56;100.00;101550.56;5216948;28;20057;-47
2023/09/26 06:10:27;;;;;;;3.70;2.28;;;11.50;99.90;;;11.61;100.00;101541.22;5234821;28;20059;-46
2023/09/26 06:12:59;;;;;;;4.00;2.90;;;11.50;99.90;;;11.64;100.00;101546.56;5229383;28;20126;-46
2023/09/26 06:15:33;;;;;;;3.60;2.30;;;11.50;99.90;;;12.06;100.00;101549.22;5216809;28;20052;-47
2023/09/26 06:18:07;;;;;;;3.70;2.53;;;11.70;99.90;;;13.42;100.00;101536.06;5217224;28;20040;-46
2023/09/26 06:20:40;;;;;;;4.30;2.42;;;12.60;99.90;;;14.91;100.00;101529.50;5234680;28;20138;-48
2023/09/26 06:23:13;;;;;;;4.65;3.00;;;13.80;99.90;;;16.19;100.00;101541.66;5230346;28;20472;-46
2023/09/26 06:25:45;;;;;;;3.40;2.35;;;15.00;99.90;;;17.29;100.00;101539.69;5230420;28;20053;-46
2023/09/26 06:28:17;;;;;;;3.33;2.20;;;16.10;99.90;;;18.18;100.00;101544.75;5239505;28;20527;-47
2023/09/26 06:30:51;;;;;;;4.50;2.63;;;17.10;99.90;;;18.93;96.41;101534.41;5223414;28;20059;-46
2023/09/26 06:33:23;;;;;;;5.03;2.47;;;18.00;99.90;;;19.53;92.79;101541.22;5237043;28;20072;-46
2023/09/26 06:35:56;;;;;;;6.20;2.40;;;18.60;99.90;;;19.99;90.03;101539.91;5212154;28;20060;-46
2023/09/26 06:38:31;;;;;;;4.10;1.85;;;19.10;99.90;;;20.36;87.71;101539.28;5232319;28;20063;-48
2023/09/26 06:41:06;;;;;;;3.90;2.38;;;19.60;99.20;;;20.64;85.86;101546.53;5224557;28;20416;-46
2023/09/26 06:43:38;;;;;;;4.10;2.03;;;19.90;98.20;;;20.72;85.00;101543.94;5229908;28;20041;-45
2023/09/26 06:46:12;;;;;;;3.60;2.00;;;20.10;97.50;;;20.69;84.61;101539.53;5216193;28;20052;-49
2023/09/26 06:48:44;;;;;;;3.88;2.25;;;20.10;97.00;;;20.61;84.78;101541.25;5213304;28;20056;-46
2023/09/26 06:51:17;;;;;;;6.90;2.55;;;20.20;96.80;;;20.57;85.41;101539.44;5211844;28;20130;-46
2023/09/26 06:53:49;;;;;;;3.33;2.03;;;20.20;96.80;;;20.54;84.77;101544.75;5212799;28;20048;-47
2023/09/26 06:56:22;;;;;;;2.75;1.85;;;20.20;96.30;;;20.36;84.98;101544.59;5223080;28;20053;-52
2023/09/26 06:58:54;;;;;;;2.97;2.20;;;20.10;96.10;;;20.08;85.75;101528.50;5237380;28;20479;-55
2023/09/26 07:01:28;;;;;;;4.53;2.08;;;19.90;96.20;;;19.97;86.99;101535.50;5214874;28;20041;-48
2023/09/26 07:04:01;;;;;;;3.83;2.05;;;19.70;96.50;;;20.08;87.33;101543.47;5235534;28;20573;-48
2023/09/26 07:06:36;;;;;;;2.42;2.13;;;19.80;96.80;;;20.20;87.07;101536.53;5240030;28;20133;-49
2023/09/26 07:09:12;;;;;;;4.35;2.20;;;19.90;96.80;;;20.29;86.57;101541.91;5235948;28;20148;-48
2023/09/26 07:11:44;;;;;;;3.67;2.22;;;19.90;96.40;;;20.40;86.31;101533.13;5223790;28;20504;-49
2023/09/26 07:14:17;;;;;;;3.42;2.10;;;20.00;96.50;;;20.56;85.97;101537.69;5235804;28;20057;-49
2023/09/26 07:16:51;;;;;;;2.78;1.83;;;20.10;96.30;;;20.73;85.83;101532.44;5235730;28;20098;-49
2023/09/26 07:19:24;;;;;;;3.72;2.10;;;20.30;96.20;;;20.82;85.01;101525.44;5238818;28;20490;-48
2023/09/26 07:21:56;;;;;;;3.25;1.73;;;20.40;95.90;;;20.95;84.74;101525.50;5229283;28;20523;-50
2023/09/26 07:24:28;;;;;;;2.88;1.95;;;20.50;95.70;;;20.88;84.00;101527.25;5217051;28;20044;-49
2023/09/26 07:27:01;;;;;;;3.05;1.80;;;20.50;95.30;;;20.87;84.00;101520.19;5222840;28;20052;-49
2023/09/26 07:29:33;;;;;;;2.78;1.65;;;20.50;95.30;;;20.85;83.86;101520.16;5239677;28;20537;-49
2023/09/26 07:32:07;;;;;;;3.17;1.80;;;20.50;95.10;;;20.84;83.70;101522.78;5220965;28;20044;-49
2023/09/26 07:34:42;;;;;;;3.55;2.10;;;20.50;95.00;;;20.78;84.01;101518.34;5218544;28;20472;-50
2023/09/26 07:37:14;;;;;;;3.97;2.20;;;20.40;95.00;;;20.72;84.18;101523.63;5215100;28;20132;-49
2023/09/26 07:39:51;;;;;;;3.08;2.13;;;20.40;95.10;;;20.66;84.42;101531.53;5220222;28;20416;-50
2023/09/26 07:42:24;;;;;;;2.58;1.83;;;20.30;95.10;;;20.73;84.80;101530.69;5231113;28;20143;-49
2023/09/26 07:44:59;;;;;;;4.93;2.00;;;20.40;95.30;;;20.80;84.53;101529.88;5222934;28;20059;-50
2023/09/26 07:47:33;;;;;;;3.67;1.73;;;20.40;95.30;;;20.93;84.33;101533.44;5239784;28;20049;-50
2023/09/26 07:50:07;;;;;;;3.67;1.77;;;20.40;95.20;;;21.11;84.46;101540.56;5223169;28;20067;-49
2023/09/26 07:52:42;;;;;;;3.03;1.80;;;20.50;95.30;;;21.21;83.75;101539.72;5223093;28;20060;-49
2023/09/26 07:55:15;;;;;;;3.05;1.92;;;20.60;95.00;;;21.39;83.42;101539.81;5239563;28;20526;-50
2023/09/26 07:57:47;;;;;;;3.92;2.17;;;20.70;95.00;;;21.56;82.40;101537.16;5222161;28;20395;-49
2023/09/26 08:00:19;;;;;;;2.55;1.70;;;20.80;94.70;;;21.60;81.67;101543.38;5219057;28;20523;-48
2023/09/26 08:02:53;;;;;;;2.70;1.63;;;20.80;94.30;;;21.62;81.47;101537.19;5238729;28;20056;-49
2023/09/26 08:05:26;;;;;;;3.92;1.80;;;20.80;94.30;;;21.55;81.40;101545.13;5221159;28;20055;-48
2023/09/26 08:08:03;;;;;;;2.38;1.77;;;20.70;94.20;;;21.64;81.89;101540.69;5239300;28;20044;-49
2023/09/26 08:10:38;;;;;;;3.45;1.90;;;20.70;94.40;;;21.87;81.74;101529.22;5237948;28;20049;-49
2023/09/26 08:13:11;;;;;;;4.80;1.90;;;20.80;94.70;;;22.17;80.94;101531.03;5212002;28;20057;-49
2023/09/26 08:15:43;;;;;;;2.33;2.00;;;20.90;94.70;;;22.61;80.27;101536.22;5232174;28;20366;-49
2023/09/26 08:18:17;;;;;;;3.55;1.90;;;21.10;94.70;;;23.09;79.12;101529.00;5220569;28;20072;-49
2023/09/26 08:20:55;;;;;;;2.75;1.88;;;21.20;94.50;;;23.72;78.13;101534.78;5227664;28;20052;-49
2023/09/26 08:23:28;;;;;;;3.65;1.83;;;21.60;94.60;;;24.44;74.68;101526.16;5225840;28;20080;-48
2023/09/26 08:26:03;;;;;;;3.63;1.90;;;22.10;93.50;;;25.05;72.65;101522.81;5238857;28;20045;-49
2023/09/26 08:28:35;;;;;;;3.80;1.88;;;22.60;93.00;;;25.56;70.69;101528.28;5239066;28;20052;-49
2023/09/26 08:31:14;;;;;;;3.10;1.70;;;23.20;91.50;;;26.24;69.26;101520.03;5229296;28;20057;-50
2023/09/26 08:33:49;;;;;;;3.38;1.75;;;23.90;90.80;;;26.99;68.33;101521.22;5232848;28;20052;-50
2023/09/26 08:36:22;;;;;;;3.35;1.75;;;24.60;90.10;;;27.51;66.09;101517.38;5222291;28;20063;-50
2023/09/26 08:38:56;;;;;;;2.33;1.65;;;25.20;87.40;;;27.85;65.18;101529.06;5222282;28;20052;-49
2023/09/26 08:41:30;;;;;;;2.53;1.70;;;25.60;85.50;;;28.07;64.42;101520.47;5234302;28;20393;-49
2023/09/26 08:44:03;;;;;;;5.25;1.65;;;26.00;83.90;;;28.18;63.49;101521.06;5234216;28;20415;-49
2023/09/26 08:46:37;;;;;;;1.88;1.50;;;26.20;82.30;;;28.27;64.06;101525.28;5235988;28;20508;-50
2023/09/26 08:49:11;;;;;;;3.20;1.50;;;26.40;81.70;;;27.79;63.58;101523.88;5222192;28;20544;-50
2023/09/26 08:51:43;;;;;;;;;;;26.20;79.60;;;27.31;64.32;101521.41;5217902;28;20052;-57
2023/09/26 08:54:16;;;;;;;1.80;1.33;;;26.10;79.20;;;27.07;65.39;101521.97;5232991;28;19921;-49
2023/09/26 08:56:48;;;;;;;2.13;1.55;;;25.90;79.50;;;26.52;66.48;101520.41;5238167;28;20049;-49
2023/09/26 08:59:22;;;;;;;2.90;1.60;;;25.60;79.80;;;26.08;67.91;101516.78;5228147;28;20037;-50
2023/09/26 09:01:55;;;;;;;2.85;1.80;;;25.30;80.70;;;25.38;68.43;101518.78;5237955;28;20056;-49
2023/09/26 09:04:29;;;;;;;2.38;1.65;;;24.80;80.60;;;24.82;70.87;101516.84;5216812;28;20052;-48
2023/09/26 09:07:04;;;;;;;3.13;1.42;;;24.30;82.50;;;24.58;71.82;101518.00;5221790;28;20051;-49
2023/09/26 09:09:36;;;;;;;2.08;1.50;;;24.00;83.30;;;24.48;72.64;101513.72;5236842;28;20056;-49
2023/09/26 09:12:22;;;;;;;2.75;1.73;;;23.90;84.50;;;24.44;73.14;101510.19;5231398;28;20048;-49
2023/09/26 09:14:55;;;;;;;2.80;1.70;;;23.80;85.00;;;24.38;73.25;101506.69;5220591;28;20041;-49
2023/09/26 09:17:40;;;;;;;3.25;1.70;;;23.70;85.30;;;24.21;73.75;101507.75;5223579;28;20110;-49
2023/09/26 09:20:16;;;;;;;2.42;1.40;;;23.60;85.50;;;24.18;74.62;101506.88;5218117;28;20049;-49
2023/09/26 09:23:04;;;;;;;3.38;1.88;;;23.60;86.50;;;24.16;74.87;101498.03;5236210;28;20100;-49
2023/09/26 09:25:40;;;;;;;2.10;1.52;;;23.50;86.60;;;24.27;74.84;101493.47;5239649;28;20044;-49
2023/09/26 09:28:12;;;;;;;3.33;1.75;;;23.60;87.00;;;24.30;74.66;101496.09;5222274;28;20057;-49
2023/09/26 09:30:45;;;;;;;1.85;1.40;;;23.60;86.90;;;24.42;75.02;101482.69;5241409;28;20049;-49
2023/09/26 09:33:17;;;;;;;1.83;1.52;;;23.70;87.20;;;24.56;74.52;101482.50;5237451;28;20512;-48
2023/09/26 09:35:52;;;;;;;2.83;1.60;;;23.70;87.10;;;24.62;74.29;101464.66;5219682;28;20053;-55
2023/09/26 09:38:25;;;;;;;;;;;23.80;86.80;;;24.63;74.77;101463.75;5225683;28;20577;-50
2023/09/26 09:41:02;;;;;;;;;;;23.90;87.10;;;24.68;74.71;101461.03;5239024;28;19928;-49
2023/09/26 09:43:34;;;;;;;3.15;1.98;;;23.90;86.90;;;24.80;74.42;101460.00;5225452;28;20332;-50
2023/09/26 09:46:10;;;;;;;4.35;2.00;;;24.00;87.10;;;24.87;74.36;101453.69;5235987;28;20052;-49
2023/09/26 09:48:45;;;;;;;2.28;1.50;;;24.10;86.90;;;24.86;74.55;101458.13;5233151;28;20534;-49
2023/09/26 09:51:18;;;;;;;2.70;1.80;;;24.10;86.60;;;24.93;74.95;101456.25;5224788;28;20049;-49
2023/09/26 09:53:55;;;;;;;3.33;1.45;;;24.20;87.10;;;25.11;75.53;101460.50;5219522;28;20044;-49
2023/09/26 09:56:35;;;;;;;2.60;1.40;;;24.30;87.80;;;25.21;74.51;101456.75;5236132;28;20071;-50
2023/09/26 09:59:13;;;;;;;2.63;1.85;;;24.40;87.10;;;25.13;73.58;101454.22;5235816;28;20049;-49
2023/09/26 10:01:49;;;;;;;2.05;1.77;;;24.40;85.80;;;24.88;73.57;101450.09;5220652;28;20120;-48
2023/09/26 10:04:23;;;;;;;2.38;1.58;;;24.20;85.50;;;24.96;75.10;101439.31;5234985;28;20257;-49
2023/09/26 10:06:58;;;;;;;4.05;1.80;;;24.30;87.00;;;25.15;75.38;101439.06;5221664;28;20049;-49
2023/09/26 10:09:31;;;;;;;3.13;1.92;;;24.40;87.60;;;25.24;74.68;101439.84;5224943;28;20041;-49
2023/09/26 10:12:05;;;;;;;2.60;1.50;;;24.40;86.70;;;25.46;75.33;101446.59;5238542;28;20049;-50
2023/09/26 10:14:38;;;;;;;3.45;1.70;;;24.60;87.50;;;25.54;74.47;101450.00;5240209;28;20084;-49
2023/09/26 10:17:14;;;;;;;2.33;1.60;;;24.70;86.70;;;25.48;74.32;101439.44;5218876;28;20049;-48
2023/09/26 10:19:47;;;;;;;1.52;1.40;;;24.70;86.50;;;25.55;74.31;101429.53;5219355;28;20135;-48
2023/09/26 10:22:22;;;;;;;3.38;1.40;;;24.80;86.30;;;25.63;74.32;101431.19;5219952;28;20057;-50
2023/09/26 10:24:55;;;;;;;1.92;1.40;;;24.80;86.30;;;25.79;73.55;101428.25;5237309;28;20045;-50
2023/09/26 10:27:39;;;;;;;1.70;1.38;;;24.90;85.80;;;25.89;73.96;101432.53;5217405;28;20519;-56
2023/09/26 10:30:14;;;;;;;2.58;1.67;;;25.00;86.20;;;26.00;74.32;101437.66;5239637;28;20052;-58
2023/09/26 10:32:47;;;;;;;6.40;1.80;;;25.10;86.50;;;26.18;73.96;101438.19;5235519;28;20044;-49
2023/09/26 10:35:28;;;;;;;2.47;1.88;;;25.30;86.30;;;26.31;72.64;101432.59;5236060;28;20459;-49